Time;durP1;ratioP1;P1;durP2;ratioP2;P2;SDS_P1;SDS_P2;PMS_P1;PMS_P2;Temp;Humidity;BMP_temperature;BMP_pressure;BME280_temperature;BME280_humidity;BME280_pressure;Samples;Min_cycle;Max_cycle;Signal;HPM_P1;HPM_P2
2021/08/10 00:01:28;;;;;;;2.85;1.65;;;;;;;;;;5013881;28;20030;-78
2021/08/10 00:03:54;;;;;;;3.25;2.17;;;;;;;;;;5013632;28;20500;-77
2021/08/10 00:06:20;;;;;;;3.85;1.75;;;;;;;;;;5014127;28;20025;-77
2021/08/10 00:08:46;;;;;;;3.13;1.88;;;;;;;;;;5014477;28;20030;-78
2021/08/10 00:11:12;;;;;;;3.45;1.80;;;;;;;;;;5013999;28;20022;-77
2021/08/10 00:13:38;;;;;;;2.38;1.60;;;;;;;;;;5014005;28;20481;-77
2021/08/10 00:16:04;;;;;;;3.42;1.80;;;;;;;;;;5008110;28;20023;-78
2021/08/10 00:18:31;;;;;;;1.60;1.42;;;;;;;;;;4994573;28;20026;-78
2021/08/10 00:20:57;;;;;;;3.33;1.77;;;;;;;;;;4994316;28;20324;-78
2021/08/10 00:23:23;;;;;;;3.67;1.95;;;;;;;;;;4994487;28;20535;-77
2021/08/10 00:25:49;;;;;;;3.65;1.88;;;;;;;;;;4994173;28;20084;-77
2021/08/10 00:28:16;;;;;;;3.08;1.60;;;;;;;;;;5008310;28;20034;-77
2021/08/10 00:30:44;;;;;;;5.35;1.73;;;;;;;;;;5013051;28;20061;-77
2021/08/10 00:33:10;;;;;;;4.22;1.85;;;;;;;;;;5013967;28;20378;-77
2021/08/10 00:35:36;;;;;;;3.38;1.70;;;;;;;;;;5014130;28;20504;-77
2021/08/10 00:38:02;;;;;;;2.90;1.77;;;;;;;;;;5014453;28;20037;-77
2021/08/10 00:40:29;;;;;;;3.65;1.80;;;;;;;;;;5028371;28;20068;-78
2021/08/10 00:42:55;;;;;;;3.90;1.70;;;;;;;;;;5030771;28;20113;-77
2021/08/10 00:45:21;;;;;;;5.28;1.50;;;;;;;;;;5013357;28;20029;-77
2021/08/10 00:47:48;;;;;;;1.98;1.40;;;;;;;;;;5013078;28;20088;-77
2021/08/10 00:50:14;;;;;;;3.45;1.92;;;;;;;;;;5012354;28;20028;-77
2021/08/10 00:52:40;;;;;;;2.78;1.80;;;;;;;;;;5013446;28;20049;-78
2021/08/10 00:55:07;;;;;;;2.75;1.60;;;;;;;;;;5015068;28;20037;-77
2021/08/10 00:57:35;;;;;;;2.65;1.77;;;;;;;;;;5015964;28;20026;-77
2021/08/10 01:00:04;;;;;;;8.93;2.03;;;;;;;;;;5017026;28;20091;-78
2021/08/10 01:02:30;;;;;;;2.75;1.70;;;;;;;;;;5017286;28;20072;-78
2021/08/10 01:04:56;;;;;;;2.90;1.80;;;;;;;;;;5003984;28;20026;-78
2021/08/10 01:07:29;;;;;;;3.35;1.63;;;;;;;;;;5014480;28;20036;-78
2021/08/10 01:10:14;;;;;;;3.90;1.77;;;;;;;;;;5017217;28;20034;-78
2021/08/10 01:12:47;;;;;;;4.05;1.70;;;;;;;;;;5022421;28;20492;-77
2021/08/10 01:15:15;;;;;;;2.63;1.38;;;;;;;;;;5017780;28;20022;-78
2021/08/10 01:17:54;;;;;;;2.92;1.70;;;;;;;;;;5017309;28;20022;-78
2021/08/10 01:20:30;;;;;;;3.08;1.92;;;;;;;;;;5013094;28;20014;-77
2021/08/10 01:22:56;;;;;;;3.35;1.80;;;;;;;;;;5005812;28;20160;-77
2021/08/10 01:25:28;;;;;;;3.03;1.80;;;;;;;;;;5014958;28;20113;-77
2021/08/10 01:27:54;;;;;;;2.53;1.52;;;;;;;;;;5016505;28;20034;-77
2021/08/10 01:30:23;;;;;;;3.72;1.63;;;;;;;;;;5016188;28;20014;-78
2021/08/10 01:32:49;;;;;;;2.22;1.40;;;;;;;;;;5016276;28;20068;-77
2021/08/10 01:35:17;;;;;;;3.22;1.60;;;;;;;;;;5016800;28;20556;-77
2021/08/10 01:37:44;;;;;;;3.80;1.95;;;;;;;;;;5009107;28;20018;-77
2021/08/10 01:40:12;;;;;;;3.58;1.67;;;;;;;;;;4997346;28;20026;-77
2021/08/10 01:42:40;;;;;;;3.00;1.42;;;;;;;;;;4997228;28;20065;-77
2021/08/10 01:45:07;;;;;;;2.38;1.63;;;;;;;;;;5001402;28;20458;-77
2021/08/10 01:47:37;;;;;;;4.13;1.65;;;;;;;;;;4996597;28;20035;-77
2021/08/10 01:50:04;;;;;;;2.22;1.30;;;;;;;;;;4996534;28;20023;-78
2021/08/10 01:52:30;;;;;;;4.28;1.75;;;;;;;;;;4996462;28;20046;-77
2021/08/10 01:54:56;;;;;;;1.98;1.30;;;;;;;;;;4996501;28;20042;-77
2021/08/10 01:57:23;;;;;;;3.72;1.70;;;;;;;;;;5014051;28;20101;-78
2021/08/10 01:59:50;;;;;;;2.22;1.48;;;;;;;;;;5015920;28;20065;-78
2021/08/10 02:02:16;;;;;;;4.13;1.63;;;;;;;;;;5015567;28;20113;-78
2021/08/10 02:04:44;;;;;;;3.13;1.52;;;;;;;;;;5015648;28;20025;-78
2021/08/10 02:07:10;;;;;;;2.92;1.45;;;;;;;;;;5016394;28;20032;-77
2021/08/10 02:09:36;;;;;;;2.70;1.45;;;;;;;;;;5002219;28;20022;-78
2021/08/10 02:12:03;;;;;;;2.90;1.55;;;;;;;;;;5015716;28;20046;-78
2021/08/10 02:14:29;;;;;;;4.15;1.83;;;;;;;;;;5015364;28;20050;-78
2021/08/10 02:17:01;;;;;;;3.00;1.40;;;;;;;;;;5014270;28;20045;-78
2021/08/10 02:19:28;;;;;;;2.55;1.60;;;;;;;;;;5015101;28;20034;-78
2021/08/10 02:21:59;;;;;;;4.40;1.75;;;;;;;;;;5015327;28;20018;-78
2021/08/10 02:24:48;;;;;;;3.88;1.73;;;;;;;;;;5015783;28;20090;-78
2021/08/10 02:27:18;;;;;;;3.47;1.63;;;;;;;;;;5007554;28;20038;-78
2021/08/10 02:29:47;;;;;;;2.97;1.40;;;;;;;;;;4996660;28;20030;-78
2021/08/10 02:32:16;;;;;;;2.13;1.38;;;;;;;;;;5001993;28;20025;-78
2021/08/10 02:34:43;;;;;;;6.03;1.90;;;;;;;;;;5015584;28;20084;-77
2021/08/10 02:37:14;;;;;;;3.75;1.73;;;;;;;;;;5014751;28;20064;-77
2021/08/10 02:39:42;;;;;;;2.70;1.45;;;;;;;;;;5014984;28;20061;-77
2021/08/10 02:42:09;;;;;;;1.55;1.30;;;;;;;;;;5014429;28;20030;-78
2021/08/10 02:44:35;;;;;;;3.13;1.45;;;;;;;;;;5005597;28;20424;-77
2021/08/10 02:47:02;;;;;;;2.53;1.50;;;;;;;;;;4995251;28;20520;-77
2021/08/10 02:49:28;;;;;;;4.15;1.60;;;;;;;;;;5028865;28;20037;-77
2021/08/10 02:51:55;;;;;;;3.65;1.48;;;;;;;;;;5034316;28;20037;-77
2021/08/10 02:54:21;;;;;;;2.72;1.45;;;;;;;;;;5034545;28;20029;-77
2021/08/10 02:57:01;;;;;;;5.20;1.60;;;;;;;;;;5023531;28;20077;-77
2021/08/10 02:59:32;;;;;;;3.05;1.70;;;;;;;;;;5012856;28;20460;-77
2021/08/10 03:02:12;;;;;;;3.35;1.58;;;;;;;;;;5014016;28;20025;-77
2021/08/10 03:04:41;;;;;;;3.28;1.45;;;;;;;;;;5014787;28;20026;-77
2021/08/10 03:07:07;;;;;;;2.22;1.70;;;;;;;;;;5014580;28;20025;-77
2021/08/10 03:09:34;;;;;;;2.50;1.90;;;;;;;;;;5013553;28;20382;-77
2021/08/10 03:12:06;;;;;;;2.78;1.67;;;;;;;;;;5006993;28;20027;-77
2021/08/10 03:14:36;;;;;;;2.80;1.58;;;;;;;;;;4995061;28;20037;-77
2021/08/10 03:17:04;;;;;;;3.10;1.45;;;;;;;;;;4994585;28;20033;-77
2021/08/10 03:19:32;;;;;;;2.67;1.63;;;;;;;;;;4994380;28;20058;-77
2021/08/10 03:21:59;;;;;;;2.22;1.90;;;;;;;;;;5032253;28;20491;-77
2021/08/10 03:24:25;;;;;;;4.10;1.75;;;;;;;;;;5033972;28;20056;-77
2021/08/10 03:26:52;;;;;;;4.13;1.67;;;;;;;;;;5029648;28;20452;-77
2021/08/10 03:29:21;;;;;;;3.70;1.60;;;;;;;;;;5014401;28;20034;-77
2021/08/10 03:31:47;;;;;;;3.58;1.63;;;;;;;;;;5012208;28;20030;-77
2021/08/10 03:34:13;;;;;;;5.32;2.33;;;;;;;;;;5014691;28;20120;-77
2021/08/10 03:36:41;;;;;;;3.50;1.88;;;;;;;;;;5014080;28;20529;-77
2021/08/10 03:39:07;;;;;;;5.93;1.60;;;;;;;;;;5014101;28;20033;-77
2021/08/10 03:41:33;;;;;;;2.67;1.63;;;;;;;;;;5013825;28;20021;-77
2021/08/10 03:43:59;;;;;;;3.28;1.77;;;;;;;;;;5010966;28;20073;-77
2021/08/10 03:46:29;;;;;;;3.83;1.63;;;;;;;;;;5013580;28;20050;-78
2021/08/10 03:48:55;;;;;;;4.05;1.70;;;;;;;;;;5013955;28;20025;-77
2021/08/10 03:51:21;;;;;;;3.53;1.60;;;;;;;;;;5013418;28;20041;-77
2021/08/10 03:53:47;;;;;;;3.53;1.83;;;;;;;;;;5029072;28;20480;-78
2021/08/10 03:56:14;;;;;;;2.65;1.90;;;;;;;;;;5030769;28;20022;-77
2021/08/10 03:58:41;;;;;;;3.42;1.95;;;;;;;;;;5014147;28;20232;-78
2021/08/10 04:01:07;;;;;;;2.17;1.60;;;;;;;;;;5013608;28;20014;-78
2021/08/10 04:03:35;;;;;;;2.90;1.70;;;;;;;;;;5014311;28;20037;-78
2021/08/10 04:06:01;;;;;;;2.55;1.80;;;;;;;;;;5014190;28;20536;-78
2021/08/10 04:08:28;;;;;;;3.78;1.60;;;;;;;;;;5013088;28;20034;-78
2021/08/10 04:10:54;;;;;;;2.10;1.80;;;;;;;;;;5011742;28;20036;-78
2021/08/10 04:13:20;;;;;;;3.03;1.80;;;;;;;;;;4996076;28;20030;-77
2021/08/10 04:15:48;;;;;;;3.45;1.80;;;;;;;;;;4993687;28;20026;-77
2021/08/10 04:18:16;;;;;;;3.10;1.92;;;;;;;;;;4992720;28;20528;-77
2021/08/10 04:20:46;;;;;;;2.45;1.67;;;;;;;;;;4998792;28;20022;-77
2021/08/10 04:23:12;;;;;;;2.65;1.50;;;;;;;;;;5013994;28;20099;-77
2021/08/10 04:25:38;;;;;;;5.07;2.08;;;;;;;;;;5025430;28;20403;-78
2021/08/10 04:28:07;;;;;;;2.30;1.50;;;;;;;;;;5020248;28;20357;-78
2021/08/10 04:30:33;;;;;;;3.05;1.40;;;;;;;;;;5013713;28;20435;-78
2021/08/10 04:32:59;;;;;;;4.00;1.77;;;;;;;;;;5016415;28;20484;-78
2021/08/10 04:35:25;;;;;;;3.72;1.52;;;;;;;;;;5017376;28;20022;-78
2021/08/10 04:37:52;;;;;;;2.05;1.65;;;;;;;;;;5017315;28;20060;-77
2021/08/10 04:40:18;;;;;;;2.10;1.60;;;;;;;;;;5017130;28;20109;-77
2021/08/10 04:42:44;;;;;;;3.22;1.73;;;;;;;;;;5017778;28;20030;-77
2021/08/10 04:45:14;;;;;;;2.20;1.42;;;;;;;;;;5010340;28;20026;-76
2021/08/10 04:47:42;;;;;;;3.85;1.70;;;;;;;;;;5013293;28;20057;-76
2021/08/10 04:50:09;;;;;;;3.25;1.58;;;;;;;;;;5014711;28;20401;-77
2021/08/10 04:52:35;;;;;;;3.47;1.77;;;;;;;;;;5015202;28;20030;-77
2021/08/10 04:55:02;;;;;;;2.53;1.60;;;;;;;;;;5015304;28;20029;-78
2021/08/10 04:57:28;;;;;;;3.15;1.73;;;;;;;;;;5022278;28;20026;-77
2021/08/10 04:59:54;;;;;;;2.38;1.52;;;;;;;;;;5035583;28;20411;-77
2021/08/10 05:02:20;;;;;;;4.30;1.75;;;;;;;;;;5034108;28;20026;-77
2021/08/10 05:04:46;;;;;;;3.40;1.77;;;;;;;;;;5035312;28;20029;-77
2021/08/10 05:07:12;;;;;;;3.13;1.50;;;;;;;;;;5033969;28;20029;-77
2021/08/10 05:09:39;;;;;;;2.45;1.92;;;;;;;;;;5022747;28;20261;-77
2021/08/10 05:12:05;;;;;;;2.80;1.60;;;;;;;;;;5007155;28;20401;-77
2021/08/10 05:14:32;;;;;;;2.53;1.65;;;;;;;;;;4995774;28;20443;-77
2021/08/10 05:16:58;;;;;;;1.75;1.50;;;;;;;;;;4995426;28;20026;-77
2021/08/10 05:19:24;;;;;;;1.95;1.50;;;;;;;;;;4996005;28;20432;-77
2021/08/10 05:21:50;;;;;;;3.05;1.50;;;;;;;;;;5005735;28;20098;-77
2021/08/10 05:24:16;;;;;;;2.67;1.65;;;;;;;;;;5015585;28;20422;-77
2021/08/10 05:26:42;;;;;;;2.65;1.50;;;;;;;;;;5013593;28;20085;-77
2021/08/10 05:29:08;;;;;;;3.47;1.75;;;;;;;;;;5001599;28;20034;-77
2021/08/10 05:31:37;;;;;;;2.47;1.63;;;;;;;;;;5014473;28;20056;-77
2021/08/10 05:34:03;;;;;;;2.08;1.60;;;;;;;;;;5014596;28;20028;-78
2021/08/10 05:36:32;;;;;;;2.75;1.83;;;;;;;;;;5015154;28;20014;-77
2021/08/10 05:38:58;;;;;;;2.80;1.80;;;;;;;;;;5015269;28;20101;-77
2021/08/10 05:41:24;;;;;;;2.17;1.58;;;;;;;;;;5014680;28;20060;-77
2021/08/10 05:43:50;;;;;;;3.65;2.10;;;;;;;;;;5012250;28;20037;-77
2021/08/10 05:47:51;;;;;;;2.45;1.70;;;;;;;;;;5069596;28;20379;-77
2021/08/10 05:50:17;;;;;;;2.40;1.75;;;;;;;;;;5070401;28;20025;-77
2021/08/10 05:52:43;;;;;;;2.80;1.67;;;;;;;;;;5069809;28;20066;-77
2021/08/10 05:55:10;;;;;;;3.47;1.90;;;;;;;;;;5070229;28;20063;-77
2021/08/10 05:57:36;;;;;;;3.00;2.00;;;;;;;;;;5068350;28;20085;-77
2021/08/10 06:00:02;;;;;;;3.58;1.90;;;;;;;;;;5070695;28;20029;-77
2021/08/10 06:02:28;;;;;;;2.75;1.83;;;;;;;;;;5070064;28;20021;-77
2021/08/10 06:04:54;;;;;;;2.10;1.70;;;;;;;;;;5070026;28;20032;-77
2021/08/10 06:07:20;;;;;;;3.10;1.63;;;;;;;;;;5070223;28;20021;-77
2021/08/10 06:09:46;;;;;;;2.28;1.83;;;;;;;;;;5069099;28;20032;-77
2021/08/10 06:12:12;;;;;;;3.00;1.90;;;;;;;;;;5069579;28;20021;-77
2021/08/10 06:14:38;;;;;;;3.78;1.73;;;;;;;;;;5069127;28;20051;-77
2021/08/10 06:17:07;;;;;;;2.72;1.80;;;;;;;;;;5069084;28;20135;-77
2021/08/10 06:19:36;;;;;;;3.15;1.88;;;;;;;;;;5069536;28;20047;-77
2021/08/10 06:22:02;;;;;;;3.45;1.80;;;;;;;;;;5069003;28;20075;-77
2021/08/10 06:24:28;;;;;;;2.00;1.60;;;;;;;;;;5069643;28;20024;-77
2021/08/10 06:26:54;;;;;;;3.08;1.98;;;;;;;;;;5069580;28;20047;-77
2021/08/10 06:29:20;;;;;;;3.55;1.85;;;;;;;;;;5069529;28;20502;-77
2021/08/10 06:31:47;;;;;;;2.90;2.08;;;;;;;;;;5069138;28;20048;-77
2021/08/10 06:34:13;;;;;;;2.72;1.98;;;;;;;;;;5078877;28;20032;-77
2021/08/10 06:36:41;;;;;;;2.63;1.80;;;;;;;;;;5089392;28;20048;-77
2021/08/10 06:39:08;;;;;;;3.70;2.13;;;;;;;;;;5089446;28;20108;-77
2021/08/10 06:41:37;;;;;;;3.10;2.33;;;;;;;;;;5089562;28;20077;-77
2021/08/10 06:44:06;;;;;;;5.95;2.25;;;;;;;;;;5083545;28;20419;-77
2021/08/10 06:46:32;;;;;;;3.40;2.25;;;;;;;;;;5054134;28;20393;-77
2021/08/10 06:48:58;;;;;;;3.45;2.28;;;;;;;;;;5049086;28;20029;-77
2021/08/10 06:51:24;;;;;;;4.55;2.20;;;;;;;;;;5049306;28;20407;-77
2021/08/10 06:53:50;;;;;;;4.05;2.10;;;;;;;;;;5048499;28;20044;-77
2021/08/10 06:56:16;;;;;;;5.55;2.53;;;;;;;;;;5049107;28;20025;-77
2021/08/10 06:58:42;;;;;;;5.05;2.35;;;;;;;;;;5037782;28;20083;-77
2021/08/10 07:01:08;;;;;;;5.60;2.33;;;;;;;;;;5034306;28;20029;-77
2021/08/10 07:03:37;;;;;;;4.82;2.10;;;;;;;;;;5034198;28;20040;-77
2021/08/10 07:06:04;;;;;;;6.63;2.08;;;;;;;;;;5037810;28;20030;-78
2021/08/10 07:08:30;;;;;;;5.13;2.20;;;;;;;;;;5029536;28;20499;-77
2021/08/10 07:10:56;;;;;;;8.20;2.45;;;;;;;;;;5034473;28;20022;-78
2021/08/10 07:13:22;;;;;;;4.28;1.90;;;;;;;;;;5032772;28;21631;-77
2021/08/10 07:15:48;;;;;;;8.45;2.25;;;;;;;;;;5044622;28;20090;-77
2021/08/10 07:18:14;;;;;;;4.90;2.22;;;;;;;;;;5037624;28;20087;-76
2021/08/10 07:20:40;;;;;;;5.50;2.38;;;;;;;;;;5032851;28;20071;-76
2021/08/10 07:23:06;;;;;;;5.57;2.17;;;;;;;;;;5029161;28;20041;-76
2021/08/10 07:25:32;;;;;;;7.25;2.40;;;;;;;;;;5032171;28;20025;-76
2021/08/10 07:27:58;;;;;;;24.35;3.83;;;;;;;;;;5029737;28;20041;-76
2021/08/10 07:30:24;;;;;;;12.63;2.33;;;;;;;;;;5031894;28;20029;-76
2021/08/10 07:32:50;;;;;;;9.63;2.35;;;;;;;;;;5034280;28;20460;-76
2021/08/10 07:35:17;;;;;;;8.73;2.55;;;;;;;;;;5033063;28;20472;-76
2021/08/10 07:37:43;;;;;;;4.07;2.58;;;;;;;;;;5031796;28;20047;-77
2021/08/10 07:40:10;;;;;;;3.95;2.20;;;;;;;;;;5029356;28;20033;-76
2021/08/10 07:42:36;;;;;;;4.88;2.05;;;;;;;;;;5029233;28;20076;-77
2021/08/10 07:45:03;;;;;;;5.78;2.40;;;;;;;;;;5040038;28;20083;-77
2021/08/10 07:47:29;;;;;;;7.35;2.22;;;;;;;;;;5030179;28;20048;-77
2021/08/10 07:49:55;;;;;;;4.30;2.15;;;;;;;;;;5031226;28;20484;-76
2021/08/10 07:52:21;;;;;;;6.15;2.42;;;;;;;;;;5032395;28;20501;-76
2021/08/10 07:54:47;;;;;;;8.40;2.00;;;;;;;;;;5031105;28;20104;-76
2021/08/10 07:57:13;;;;;;;5.35;1.88;;;;;;;;;;5031915;28;20551;-76
2021/08/10 07:59:39;;;;;;;3.38;2.10;;;;;;;;;;5027711;28;20482;-76
2021/08/10 08:02:05;;;;;;;4.47;2.20;;;;;;;;;;5030124;28;20384;-76
2021/08/10 08:04:34;;;;;;;4.55;2.10;;;;;;;;;;5032302;28;20032;-76
2021/08/10 08:07:01;;;;;;;5.72;2.00;;;;;;;;;;5031808;28;20021;-76
2021/08/10 08:09:27;;;;;;;3.55;2.30;;;;;;;;;;5030874;28;20033;-76
2021/08/10 08:11:53;;;;;;;4.35;2.30;;;;;;;;;;5031138;28;20029;-77
2021/08/10 08:14:20;;;;;;;6.18;2.00;;;;;;;;;;5032156;28;20021;-77
2021/08/10 08:16:47;;;;;;;5.72;2.17;;;;;;;;;;5031748;28;20041;-76
2021/08/10 08:19:13;;;;;;;3.35;2.00;;;;;;;;;;5030568;28;20030;-76
2021/08/10 08:21:39;;;;;;;3.30;2.00;;;;;;;;;;5031564;28;20025;-76
2021/08/10 08:24:06;;;;;;;7.38;2.50;;;;;;;;;;5030412;28;20040;-76
2021/08/10 08:26:33;;;;;;;3.05;2.22;;;;;;;;;;5031785;28;20060;-76
2021/08/10 08:28:59;;;;;;;3.65;1.77;;;;;;;;;;5030554;28;20079;-76
2021/08/10 08:31:26;;;;;;;4.28;2.30;;;;;;;;;;5031491;28;20108;-77
2021/08/10 08:33:52;;;;;;;5.13;2.20;;;;;;;;;;5030360;28;20511;-76
2021/08/10 08:36:18;;;;;;;4.15;2.30;;;;;;;;;;5031248;28;20033;-76
2021/08/10 08:38:44;;;;;;;4.32;2.45;;;;;;;;;;5031625;28;20025;-76
2021/08/10 08:41:11;;;;;;;7.75;2.22;;;;;;;;;;5029879;28;20053;-76
2021/08/10 08:43:40;;;;;;;5.55;1.98;;;;;;;;;;5038192;28;20671;-76
2021/08/10 08:46:06;;;;;;;5.18;2.38;;;;;;;;;;5020504;28;20102;-76
2021/08/10 08:48:35;;;;;;;6.22;2.22;;;;;;;;;;5029631;28;20113;-76
2021/08/10 08:51:02;;;;;;;4.97;2.05;;;;;;;;;;5030584;28;20044;-76
2021/08/10 08:53:28;;;;;;;5.78;2.20;;;;;;;;;;5028352;28;20502;-76
2021/08/10 08:55:54;;;;;;;3.38;2.22;;;;;;;;;;5029173;28;20061;-76
2021/08/10 08:58:20;;;;;;;3.95;2.17;;;;;;;;;;5025080;28;20025;-76
2021/08/10 09:00:47;;;;;;;5.70;2.55;;;;;;;;;;5030632;28;20037;-76
2021/08/10 09:03:13;;;;;;;5.90;2.38;;;;;;;;;;5031375;28;20025;-76
2021/08/10 09:05:39;;;;;;;7.93;2.65;;;;;;;;;;5032033;28;20152;-77
2021/08/10 09:08:24;;;;;;;6.75;2.70;;;;;;;;;;5032538;28;20048;-76
2021/08/10 09:10:57;;;;;;;4.22;2.00;;;;;;;;;;5030387;28;20040;-77
2021/08/10 09:13:24;;;;;;;6.68;2.45;;;;;;;;;;5030207;28;20037;-76
2021/08/10 09:15:50;;;;;;;4.95;2.47;;;;;;;;;;5041915;28;20396;-76
2021/08/10 09:18:16;;;;;;;3.42;2.42;;;;;;;;;;5031573;28;20072;-77
2021/08/10 09:20:58;;;;;;;5.05;2.70;;;;;;;;;;5031475;28;20030;-76
2021/08/10 09:23:56;;;;;;;6.30;2.80;;;;;;;;;;5031281;28;20029;-76
2021/08/10 09:26:43;;;;;;;3.25;2.65;;;;;;;;;;5029467;28;20041;-76
2021/08/10 09:29:09;;;;;;;3.75;2.30;;;;;;;;;;5024043;28;20052;-76
2021/08/10 09:31:37;;;;;;;4.60;2.20;;;;;;;;;;5043393;28;20029;-76
2021/08/10 09:34:04;;;;;;;4.68;2.30;;;;;;;;;;5033911;28;20520;-77
2021/08/10 09:36:31;;;;;;;3.60;2.28;;;;;;;;;;5031629;28;20484;-77
2021/08/10 09:38:57;;;;;;;6.03;2.60;;;;;;;;;;5028332;28;20040;-76
2021/08/10 09:41:27;;;;;;;5.65;2.60;;;;;;;;;;5027843;28;20512;-77
2021/08/10 09:44:25;;;;;;;3.95;2.30;;;;;;;;;;5028533;28;20029;-76
2021/08/10 09:46:53;;;;;;;4.47;2.42;;;;;;;;;;5016266;28;20060;-76
2021/08/10 09:49:20;;;;;;;5.30;2.30;;;;;;;;;;5029256;28;20392;-76
2021/08/10 09:51:48;;;;;;;6.15;2.47;;;;;;;;;;5029060;28;20057;-76
2021/08/10 09:54:15;;;;;;;3.50;2.42;;;;;;;;;;5031233;28;20033;-77
2021/08/10 09:56:56;;;;;;;2.40;1.88;;;;;;;;;;5030732;28;20042;-76
2021/08/10 09:59:22;;;;;;;4.60;2.47;;;;;;;;;;5028497;28;20079;-77
2021/08/10 10:01:51;;;;;;;3.63;2.65;;;;;;;;;;5030512;28;20030;-77
2021/08/10 10:04:18;;;;;;;5.50;2.55;;;;;;;;;;5031829;28;20024;-77
2021/08/10 10:06:46;;;;;;;6.50;2.70;;;;;;;;;;5031376;28;20124;-77
2021/08/10 10:09:13;;;;;;;6.28;3.10;;;;;;;;;;5031235;28;20026;-77
2021/08/10 10:11:40;;;;;;;3.90;2.65;;;;;;;;;;5029508;28;20040;-77
2021/08/10 10:14:06;;;;;;;5.72;2.95;;;;;;;;;;5033879;28;20033;-77
2021/08/10 10:16:33;;;;;;;7.35;3.38;;;;;;;;;;5030887;28;20033;-77
2021/08/10 10:19:12;;;;;;;5.45;2.85;;;;;;;;;;5031049;28;20033;-77
2021/08/10 10:21:38;;;;;;;7.45;3.20;;;;;;;;;;5030019;28;20384;-77
2021/08/10 10:24:05;;;;;;;5.25;2.80;;;;;;;;;;5028547;28;20029;-77
2021/08/10 10:26:32;;;;;;;4.88;2.90;;;;;;;;;;5030382;28;20041;-77
2021/08/10 10:28:58;;;;;;;6.53;2.85;;;;;;;;;;5030483;28;20030;-78
2021/08/10 10:31:25;;;;;;;6.15;2.92;;;;;;;;;;5032338;28;20030;-77
2021/08/10 10:33:51;;;;;;;5.43;2.90;;;;;;;;;;5033252;28;20443;-77
2021/08/10 10:36:18;;;;;;;6.50;2.95;;;;;;;;;;5032432;28;20040;-77
2021/08/10 10:38:45;;;;;;;7.03;3.45;;;;;;;;;;5035837;28;20132;-78
2021/08/10 10:41:13;;;;;;;9.48;3.30;;;;;;;;;;5032672;28;20523;-77
2021/08/10 10:43:39;;;;;;;4.38;2.90;;;;;;;;;;5031769;28;20026;-77
2021/08/10 10:46:24;;;;;;;6.70;3.30;;;;;;;;;;5033043;28;20397;-77
2021/08/10 10:48:50;;;;;;;6.07;2.63;;;;;;;;;;5033225;28;20064;-77
2021/08/10 10:51:22;;;;;;;8.60;2.80;;;;;;;;;;5038615;28;20468;-77
2021/08/10 10:53:48;;;;;;;5.22;2.60;;;;;;;;;;5035131;28;20045;-77
2021/08/10 10:56:28;;;;;;;5.88;3.33;;;;;;;;;;5034937;28;20021;-77
2021/08/10 10:58:55;;;;;;;5.70;2.90;;;;;;;;;;5033048;28;20054;-78
2021/08/10 11:01:22;;;;;;;8.00;2.90;;;;;;;;;;5034892;28;20033;-77
2021/08/10 11:04:04;;;;;;;5.70;2.67;;;;;;;;;;5035929;28;20029;-77
2021/08/10 11:06:36;;;;;;;5.55;3.10;;;;;;;;;;5035015;28;20025;-78
2021/08/10 11:09:03;;;;;;;2.70;2.08;;;;;;;;;;5034895;28;20053;-77
2021/08/10 11:11:45;;;;;;;3.60;2.40;;;;;;;;;;5034590;28;20021;-78
2021/08/10 11:14:30;;;;;;;2.85;1.90;;;;;;;;;;5033933;28;20052;-78
2021/08/10 11:17:08;;;;;;;4.38;2.28;;;;;;;;;;5034418;28;20037;-77
2021/08/10 11:19:34;;;;;;;4.93;1.92;;;;;;;;;;5034817;28;20560;-77
2021/08/10 11:22:15;;;;;;;5.25;2.10;;;;;;;;;;5033981;28;20108;-77
2021/08/10 11:24:53;;;;;;;5.55;2.55;;;;;;;;;;5025745;28;20049;-78
2021/08/10 11:27:29;;;;;;;4.57;2.45;;;;;;;;;;5026171;28;20077;-77
2021/08/10 11:29:55;;;;;;;4.43;2.38;;;;;;;;;;5028954;28;20032;-77
2021/08/10 11:32:36;;;;;;;4.82;2.33;;;;;;;;;;5034815;28;20021;-77
2021/08/10 11:35:20;;;;;;;5.43;2.55;;;;;;;;;;5034574;28;20102;-78
2021/08/10 11:38:06;;;;;;;6.80;2.65;;;;;;;;;;5031046;28;20056;-78
2021/08/10 11:40:52;;;;;;;5.78;2.40;;;;;;;;;;5047567;28;20025;-78
2021/08/10 11:43:23;;;;;;;7.15;2.90;;;;;;;;;;5027977;28;20133;-77
2021/08/10 11:45:49;;;;;;;7.55;2.67;;;;;;;;;;5044138;28;20049;-77
2021/08/10 11:48:17;;;;;;;5.03;2.33;;;;;;;;;;5033537;28;20020;-77
2021/08/10 11:50:44;;;;;;;8.43;2.67;;;;;;;;;;5034153;28;20026;-77
2021/08/10 11:53:10;;;;;;;5.30;2.13;;;;;;;;;;5034219;28;20033;-77
2021/08/10 11:55:37;;;;;;;6.57;2.42;;;;;;;;;;5034654;28;20369;-77
2021/08/10 11:58:05;;;;;;;7.55;2.20;;;;;;;;;;5030613;28;20432;-77
2021/08/10 12:00:32;;;;;;;3.78;1.98;;;;;;;;;;5033754;28;20022;-77
2021/08/10 12:02:59;;;;;;;6.05;2.65;;;;;;;;;;5034476;28;20026;-77
2021/08/10 12:05:26;;;;;;;7.90;2.00;;;;;;;;;;5033112;28;20033;-77
2021/08/10 12:07:59;;;;;;;3.75;1.63;;;;;;;;;;5031546;28;20033;-78
2021/08/10 12:10:38;;;;;;;3.45;1.85;;;;;;;;;;5033211;28;20033;-77
2021/08/10 12:13:24;;;;;;;3.25;2.22;;;;;;;;;;5027681;28;20029;-77
2021/08/10 12:15:50;;;;;;;3.60;2.10;;;;;;;;;;5033801;28;20089;-77
2021/08/10 12:18:18;;;;;;;3.70;2.20;;;;;;;;;;5019878;28;20113;-77
2021/08/10 12:21:04;;;;;;;5.32;2.15;;;;;;;;;;5013102;28;20030;-77
2021/08/10 12:23:40;;;;;;;6.90;2.42;;;;;;;;;;5017389;28;20680;-77
2021/08/10 12:26:11;;;;;;;3.88;1.92;;;;;;;;;;5034391;28;20032;-77
2021/08/10 12:28:52;;;;;;;2.63;1.70;;;;;;;;;;5034123;28;20048;-77
2021/08/10 12:31:18;;;;;;;3.35;1.80;;;;;;;;;;5034210;28;20104;-77
2021/08/10 12:33:54;;;;;;;3.28;1.92;;;;;;;;;;5034262;28;20056;-78
2021/08/10 12:36:21;;;;;;;3.40;1.80;;;;;;;;;;5033877;28;20021;-77
2021/08/10 12:38:50;;;;;;;4.45;1.80;;;;;;;;;;5033867;28;20464;-77
2021/08/10 12:41:16;;;;;;;4.20;1.98;;;;;;;;;;5033383;28;20025;-77
2021/08/10 12:43:48;;;;;;;5.43;2.20;;;;;;;;;;5030589;28;20053;-78
2021/08/10 12:46:27;;;;;;;5.13;2.20;;;;;;;;;;5032270;28;20116;-77
2021/08/10 12:49:02;;;;;;;5.47;2.03;;;;;;;;;;5028553;28;20514;-77
2021/08/10 12:51:46;;;;;;;3.33;1.98;;;;;;;;;;5029244;28;20021;-77
2021/08/10 12:54:12;;;;;;;5.03;1.90;;;;;;;;;;5033060;28;20028;-77
2021/08/10 12:56:38;;;;;;;5.65;2.25;;;;;;;;;;5033240;28;20021;-77
2021/08/10 12:59:12;;;;;;;3.65;2.22;;;;;;;;;;5035176;28;20439;-77
2021/08/10 13:01:41;;;;;;;4.80;2.00;;;;;;;;;;5041280;28;20390;-77
2021/08/10 13:04:08;;;;;;;6.40;1.83;;;;;;;;;;5033090;28;20037;-77
2021/08/10 13:06:37;;;;;;;4.50;1.95;;;;;;;;;;5030552;28;20504;-77
2021/08/10 13:09:07;;;;;;;3.17;2.22;;;;;;;;;;5032390;28;20057;-76
2021/08/10 13:11:34;;;;;;;7.50;2.35;;;;;;;;;;5033246;28;20028;-76
2021/08/10 13:14:03;;;;;;;3.38;2.20;;;;;;;;;;5046168;28;20049;-76
2021/08/10 13:16:41;;;;;;;7.72;2.42;;;;;;;;;;5034722;28;20021;-76
2021/08/10 13:19:11;;;;;;;3.67;2.20;;;;;;;;;;5028809;28;20393;-76
2021/08/10 13:21:44;;;;;;;3.63;2.13;;;;;;;;;;5032316;28;20029;-76
2021/08/10 13:24:10;;;;;;;;;;;;;;;;;;5032389;28;20074;-76
2021/08/10 13:26:43;;;;;;;4.07;1.90;;;;;;;;;;5032458;28;20007;-76
2021/08/10 13:29:09;;;;;;;4.57;1.83;;;;;;;;;;5036055;28;20101;-75
2021/08/10 13:31:45;;;;;;;4.15;1.90;;;;;;;;;;5030216;28;20033;-75
2021/08/10 13:34:12;;;;;;;4.47;2.10;;;;;;;;;;5035899;28;20083;-75
2021/08/10 13:36:38;;;;;;;3.28;2.00;;;;;;;;;;5020962;28;20041;-75
2021/08/10 13:39:05;;;;;;;6.50;2.20;;;;;;;;;;5031466;28;20056;-75
2021/08/10 13:41:32;;;;;;;4.05;2.33;;;;;;;;;;5030844;28;20039;-75
2021/08/10 13:43:58;;;;;;;5.28;2.08;;;;;;;;;;5028636;28;20118;-75
2021/08/10 13:46:29;;;;;;;3.30;1.95;;;;;;;;;;5030957;28;20046;-75
2021/08/10 13:48:55;;;;;;;2.88;1.77;;;;;;;;;;5030314;28;20144;-75
2021/08/10 13:51:21;;;;;;;6.72;2.05;;;;;;;;;;5031021;28;20465;-75
2021/08/10 13:53:47;;;;;;;4.85;2.08;;;;;;;;;;5030438;28;20578;-75
2021/08/10 13:56:13;;;;;;;3.63;2.10;;;;;;;;;;5029256;28;20034;-74
2021/08/10 13:58:39;;;;;;;6.15;2.28;;;;;;;;;;5029872;28;20491;-75
2021/08/10 14:01:09;;;;;;;4.43;2.42;;;;;;;;;;5028907;28;20037;-75
2021/08/10 14:03:37;;;;;;;3.72;2.22;;;;;;;;;;5030180;28;20030;-75
2021/08/10 14:06:04;;;;;;;3.60;1.85;;;;;;;;;;5048612;28;20056;-75
2021/08/10 14:08:30;;;;;;;3.13;1.85;;;;;;;;;;5038397;28;20026;-75
2021/08/10 14:10:56;;;;;;;3.72;2.00;;;;;;;;;;5034561;28;20079;-76
2021/08/10 14:13:22;;;;;;;3.13;1.85;;;;;;;;;;5033565;28;20105;-76
2021/08/10 14:15:48;;;;;;;2.97;1.90;;;;;;;;;;5034722;28;20553;-75
2021/08/10 14:18:15;;;;;;;2.92;1.50;;;;;;;;;;5038196;28;20025;-75
2021/08/10 14:20:41;;;;;;;4.43;2.28;;;;;;;;;;5032521;28;20026;-75
2021/08/10 14:23:07;;;;;;;4.57;1.83;;;;;;;;;;5031862;28;20068;-75
2021/08/10 14:25:34;;;;;;;5.45;2.47;;;;;;;;;;5033693;28;20068;-75
2021/08/10 14:28:00;;;;;;;3.45;1.73;;;;;;;;;;5036684;28;20100;-75
2021/08/10 14:30:26;;;;;;;8.52;2.00;;;;;;;;;;5036746;28;20029;-75
2021/08/10 14:32:52;;;;;;;4.15;2.13;;;;;;;;;;5039242;28;20044;-75
2021/08/10 14:35:19;;;;;;;4.38;2.47;;;;;;;;;;5037472;28;20021;-74
2021/08/10 14:37:45;;;;;;;5.65;2.42;;;;;;;;;;5043462;28;20033;-75
2021/08/10 14:40:11;;;;;;;3.92;2.10;;;;;;;;;;5042445;28;20472;-75
2021/08/10 14:42:40;;;;;;;5.03;2.65;;;;;;;;;;5035636;28;20032;-75
2021/08/10 14:45:06;;;;;;;8.25;2.78;;;;;;;;;;5029888;28;20037;-75
2021/08/10 14:47:35;;;;;;;3.53;2.33;;;;;;;;;;5033574;28;20041;-75
2021/08/10 14:50:01;;;;;;;9.00;3.22;;;;;;;;;;5029500;28;20025;-76
2021/08/10 14:52:27;;;;;;;5.05;2.42;;;;;;;;;;5033608;28;20075;-76